sensor_id;sensor_type;location;lat;lon;timestamp;P1;durP1;ratioP1;P2;durP2;ratioP2
16837;SDS011;19510;54.486;9.046;2022-10-26T00:00:50;22.42;;;9.82;;
16837;SDS011;19510;54.486;9.046;2022-10-26T00:03:16;19.98;;;8.80;;
16837;SDS011;19510;54.486;9.046;2022-10-26T00:05:42;21.02;;;9.35;;
16837;SDS011;19510;54.486;9.046;2022-10-26T00:08:09;20.40;;;8.43;;
16837;SDS011;19510;54.486;9.046;2022-10-26T00:10:35;16.60;;;8.75;;
16837;SDS011;19510;54.486;9.046;2022-10-26T00:13:04;16.60;;;8.65;;
16837;SDS011;19510;54.486;9.046;2022-10-26T00:15:34;23.17;;;9.35;;
16837;SDS011;19510;54.486;9.046;2022-10-26T00:18:03;18.90;;;9.60;;
16837;SDS011;19510;54.486;9.046;2022-10-26T00:20:31;17.77;;;8.98;;
16837;SDS011;19510;54.486;9.046;2022-10-26T00:22:57;23.92;;;8.73;;
16837;SDS011;19510;54.486;9.046;2022-10-26T00:25:22;15.63;;;8.90;;
16837;SDS011;19510;54.486;9.046;2022-10-26T00:27:48;19.92;;;8.85;;
16837;SDS011;19510;54.486;9.046;2022-10-26T00:30:13;21.17;;;9.73;;
16837;SDS011;19510;54.486;9.046;2022-10-26T00:32:39;19.60;;;10.18;;
16837;SDS011;19510;54.486;9.046;2022-10-26T00:35:09;24.17;;;9.73;;
16837;SDS011;19510;54.486;9.046;2022-10-26T00:37:43;18.48;;;9.35;;
16837;SDS011;19510;54.486;9.046;2022-10-26T00:40:11;19.73;;;9.18;;
16837;SDS011;19510;54.486;9.046;2022-10-26T00:42:37;20.77;;;10.35;;
16837;SDS011;19510;54.486;9.046;2022-10-26T00:48:12;17.95;;;9.00;;
16837;SDS011;19510;54.486;9.046;2022-10-26T00:50:44;17.92;;;8.50;;
16837;SDS011;19510;54.486;9.046;2022-10-26T00:53:11;18.55;;;9.63;;
16837;SDS011;19510;54.486;9.046;2022-10-26T00:55:41;19.83;;;9.05;;
16837;SDS011;19510;54.486;9.046;2022-10-26T00:58:11;16.67;;;8.73;;
16837;SDS011;19510;54.486;9.046;2022-10-26T01:00:39;17.38;;;8.32;;
16837;SDS011;19510;54.486;9.046;2022-10-26T01:03:06;16.48;;;8.23;;
16837;SDS011;19510;54.486;9.046;2022-10-26T01:05:33;18.25;;;8.25;;
16837;SDS011;19510;54.486;9.046;2022-10-26T01:08:01;18.33;;;9.07;;
16837;SDS011;19510;54.486;9.046;2022-10-26T01:10:29;18.85;;;8.38;;
16837;SDS011;19510;54.486;9.046;2022-10-26T01:12:58;18.40;;;8.80;;
16837;SDS011;19510;54.486;9.046;2022-10-26T01:15:47;18.27;;;8.63;;
16837;SDS011;19510;54.486;9.046;2022-10-26T01:18:39;16.15;;;9.02;;
16837;SDS011;19510;54.486;9.046;2022-10-26T01:24:42;19.88;;;9.65;;
16837;SDS011;19510;54.486;9.046;2022-10-26T01:27:23;24.17;;;10.10;;
16837;SDS011;19510;54.486;9.046;2022-10-26T01:32:46;16.13;;;8.60;;
16837;SDS011;19510;54.486;9.046;2022-10-26T01:35:29;19.80;;;8.85;;
16837;SDS011;19510;54.486;9.046;2022-10-26T01:43:22;15.70;;;8.27;;
16837;SDS011;19510;54.486;9.046;2022-10-26T01:45:50;19.05;;;8.48;;
16837;SDS011;19510;54.486;9.046;2022-10-26T01:48:19;19.67;;;8.57;;
16837;SDS011;19510;54.486;9.046;2022-10-26T01:50:48;21.88;;;9.10;;
16837;SDS011;19510;54.486;9.046;2022-10-26T01:53:16;20.58;;;8.93;;
16837;SDS011;19510;54.486;9.046;2022-10-26T01:55:48;21.20;;;8.70;;
16837;SDS011;19510;54.486;9.046;2022-10-26T02:09:49;20.00;;;9.27;;
16837;SDS011;19510;54.486;9.046;2022-10-26T02:15:36;25.27;;;9.00;;
16837;SDS011;19510;54.486;9.046;2022-10-26T02:18:26;18.90;;;10.27;;
16837;SDS011;19510;54.486;9.046;2022-10-26T02:20:59;21.13;;;9.45;;
16837;SDS011;19510;54.486;9.046;2022-10-26T02:23:35;16.90;;;8.93;;
16837;SDS011;19510;54.486;9.046;2022-10-26T02:26:05;17.83;;;7.78;;
16837;SDS011;19510;54.486;9.046;2022-10-26T02:28:37;18.42;;;9.02;;
16837;SDS011;19510;54.486;9.046;2022-10-26T02:31:07;16.05;;;8.35;;
16837;SDS011;19510;54.486;9.046;2022-10-26T02:33:39;19.35;;;8.52;;
16837;SDS011;19510;54.486;9.046;2022-10-26T02:36:10;22.65;;;9.68;;
16837;SDS011;19510;54.486;9.046;2022-10-26T02:38:41;17.65;;;9.25;;
16837;SDS011;19510;54.486;9.046;2022-10-26T02:41:08;16.00;;;8.30;;
16837;SDS011;19510;54.486;9.046;2022-10-26T02:43:39;18.05;;;8.48;;
16837;SDS011;19510;54.486;9.046;2022-10-26T02:46:09;18.65;;;9.23;;
16837;SDS011;19510;54.486;9.046;2022-10-26T02:48:39;19.65;;;9.25;;
16837;SDS011;19510;54.486;9.046;2022-10-26T02:51:13;20.15;;;9.18;;
16837;SDS011;19510;54.486;9.046;2022-10-26T02:56:41;23.25;;;9.05;;
16837;SDS011;19510;54.486;9.046;2022-10-26T02:59:08;17.83;;;8.20;;
16837;SDS011;19510;54.486;9.046;2022-10-26T03:01:36;14.68;;;8.40;;
16837;SDS011;19510;54.486;9.046;2022-10-26T03:04:02;17.30;;;8.75;;
16837;SDS011;19510;54.486;9.046;2022-10-26T03:06:31;18.95;;;8.95;;
16837;SDS011;19510;54.486;9.046;2022-10-26T03:08:57;16.05;;;8.48;;
16837;SDS011;19510;54.486;9.046;2022-10-26T03:11:23;18.67;;;8.93;;
16837;SDS011;19510;54.486;9.046;2022-10-26T03:13:51;17.25;;;8.18;;
16837;SDS011;19510;54.486;9.046;2022-10-26T03:16:17;16.27;;;8.02;;
16837;SDS011;19510;54.486;9.046;2022-10-26T03:18:45;16.77;;;9.25;;
16837;SDS011;19510;54.486;9.046;2022-10-26T03:21:12;20.52;;;8.73;;
16837;SDS011;19510;54.486;9.046;2022-10-26T03:23:37;16.88;;;8.65;;
16837;SDS011;19510;54.486;9.046;2022-10-26T03:26:03;14.70;;;8.55;;
16837;SDS011;19510;54.486;9.046;2022-10-26T03:28:31;14.18;;;8.15;;
16837;SDS011;19510;54.486;9.046;2022-10-26T03:30:57;16.60;;;7.95;;
16837;SDS011;19510;54.486;9.046;2022-10-26T03:33:25;21.30;;;9.95;;
16837;SDS011;19510;54.486;9.046;2022-10-26T03:35:54;15.38;;;7.65;;
16837;SDS011;19510;54.486;9.046;2022-10-26T03:38:20;18.73;;;8.82;;
16837;SDS011;19510;54.486;9.046;2022-10-26T03:40:46;19.67;;;8.95;;
16837;SDS011;19510;54.486;9.046;2022-10-26T03:43:12;17.33;;;8.82;;
16837;SDS011;19510;54.486;9.046;2022-10-26T03:45:41;19.60;;;9.27;;
16837;SDS011;19510;54.486;9.046;2022-10-26T03:48:09;16.77;;;8.70;;
16837;SDS011;19510;54.486;9.046;2022-10-26T03:50:34;20.10;;;9.07;;
16837;SDS011;19510;54.486;9.046;2022-10-26T03:53:00;20.23;;;9.13;;
16837;SDS011;19510;54.486;9.046;2022-10-26T03:55:26;17.52;;;9.13;;
16837;SDS011;19510;54.486;9.046;2022-10-26T03:57:51;16.17;;;8.30;;
16837;SDS011;19510;54.486;9.046;2022-10-26T04:00:17;18.05;;;8.73;;
16837;SDS011;19510;54.486;9.046;2022-10-26T04:02:43;16.17;;;8.52;;
16837;SDS011;19510;54.486;9.046;2022-10-26T04:05:17;17.42;;;8.75;;
16837;SDS011;19510;54.486;9.046;2022-10-26T04:07:50;20.05;;;9.90;;
16837;SDS011;19510;54.486;9.046;2022-10-26T04:10:17;15.75;;;8.45;;
16837;SDS011;19510;54.486;9.046;2022-10-26T04:12:45;14.38;;;8.73;;
16837;SDS011;19510;54.486;9.046;2022-10-26T04:15:10;21.92;;;9.30;;
16837;SDS011;19510;54.486;9.046;2022-10-26T04:17:39;19.17;;;9.05;;
16837;SDS011;19510;54.486;9.046;2022-10-26T04:20:09;19.15;;;8.48;;
16837;SDS011;19510;54.486;9.046;2022-10-26T04:22:35;19.02;;;9.10;;
16837;SDS011;19510;54.486;9.046;2022-10-26T04:25:02;20.85;;;10.65;;
16837;SDS011;19510;54.486;9.046;2022-10-26T04:27:28;19.70;;;9.30;;
16837;SDS011;19510;54.486;9.046;2022-10-26T04:29:56;21.73;;;9.90;;
16837;SDS011;19510;54.486;9.046;2022-10-26T04:32:22;20.33;;;9.52;;
16837;SDS011;19510;54.486;9.046;2022-10-26T04:34:48;19.73;;;9.55;;
16837;SDS011;19510;54.486;9.046;2022-10-26T04:37:13;20.67;;;9.27;;
16837;SDS011;19510;54.486;9.046;2022-10-26T04:39:39;17.40;;;8.57;;
16837;SDS011;19510;54.486;9.046;2022-10-26T04:42:04;20.20;;;8.93;;
16837;SDS011;19510;54.486;9.046;2022-10-26T04:44:31;20.23;;;9.90;;
16837;SDS011;19510;54.486;9.046;2022-10-26T04:46:58;22.27;;;9.48;;
16837;SDS011;19510;54.486;9.046;2022-10-26T04:49:23;19.50;;;9.35;;
16837;SDS011;19510;54.486;9.046;2022-10-26T04:51:49;17.70;;;9.30;;
16837;SDS011;19510;54.486;9.046;2022-10-26T04:54:17;17.73;;;9.07;;
16837;SDS011;19510;54.486;9.046;2022-10-26T04:56:42;19.63;;;9.32;;
16837;SDS011;19510;54.486;9.046;2022-10-26T04:59:08;18.52;;;9.27;;
16837;SDS011;19510;54.486;9.046;2022-10-26T05:01:34;19.85;;;9.43;;
16837;SDS011;19510;54.486;9.046;2022-10-26T05:03:59;20.40;;;9.82;;
16837;SDS011;19510;54.486;9.046;2022-10-26T05:06:25;17.77;;;8.55;;
16837;SDS011;19510;54.486;9.046;2022-10-26T05:08:51;18.63;;;9.05;;
16837;SDS011;19510;54.486;9.046;2022-10-26T05:11:19;21.48;;;9.57;;
16837;SDS011;19510;54.486;9.046;2022-10-26T05:13:45;19.10;;;9.23;;
16837;SDS011;19510;54.486;9.046;2022-10-26T05:16:13;19.42;;;9.70;;
16837;SDS011;19510;54.486;9.046;2022-10-26T05:18:40;20.23;;;9.57;;
16837;SDS011;19510;54.486;9.046;2022-10-26T05:21:06;17.75;;;9.45;;
16837;SDS011;19510;54.486;9.046;2022-10-26T05:23:31;19.95;;;9.55;;
16837;SDS011;19510;54.486;9.046;2022-10-26T05:25:57;16.88;;;9.15;;
16837;SDS011;19510;54.486;9.046;2022-10-26T05:28:23;21.63;;;9.25;;
16837;SDS011;19510;54.486;9.046;2022-10-26T05:30:49;17.10;;;8.90;;
16837;SDS011;19510;54.486;9.046;2022-10-26T05:33:14;18.55;;;9.15;;
16837;SDS011;19510;54.486;9.046;2022-10-26T05:35:40;17.67;;;9.80;;
16837;SDS011;19510;54.486;9.046;2022-10-26T05:38:15;16.42;;;9.02;;
16837;SDS011;19510;54.486;9.046;2022-10-26T05:40:50;16.10;;;8.65;;
16837;SDS011;19510;54.486;9.046;2022-10-26T05:43:21;17.55;;;8.63;;
16837;SDS011;19510;54.486;9.046;2022-10-26T05:45:53;15.05;;;8.63;;
16837;SDS011;19510;54.486;9.046;2022-10-26T05:48:32;19.25;;;8.43;;
16837;SDS011;19510;54.486;9.046;2022-10-26T05:50:58;14.23;;;8.02;;
16837;SDS011;19510;54.486;9.046;2022-10-26T05:53:25;18.05;;;8.70;;
16837;SDS011;19510;54.486;9.046;2022-10-26T05:55:50;22.70;;;9.05;;
16837;SDS011;19510;54.486;9.046;2022-10-26T05:58:16;18.10;;;8.85;;
16837;SDS011;19510;54.486;9.046;2022-10-26T06:01:06;20.83;;;9.88;;
16837;SDS011;19510;54.486;9.046;2022-10-26T06:06:57;18.42;;;8.98;;
16837;SDS011;19510;54.486;9.046;2022-10-26T06:09:24;18.60;;;8.90;;
16837;SDS011;19510;54.486;9.046;2022-10-26T06:11:50;19.17;;;9.95;;
16837;SDS011;19510;54.486;9.046;2022-10-26T06:14:16;19.10;;;9.45;;
16837;SDS011;19510;54.486;9.046;2022-10-26T06:17:06;18.95;;;9.85;;
16837;SDS011;19510;54.486;9.046;2022-10-26T06:30:56;18.15;;;10.00;;
16837;SDS011;19510;54.486;9.046;2022-10-26T06:33:24;18.27;;;9.65;;
16837;SDS011;19510;54.486;9.046;2022-10-26T06:35:57;21.00;;;10.63;;
16837;SDS011;19510;54.486;9.046;2022-10-26T06:38:27;20.15;;;9.70;;
16837;SDS011;19510;54.486;9.046;2022-10-26T06:40:55;22.65;;;10.70;;
16837;SDS011;19510;54.486;9.046;2022-10-26T06:45:48;19.38;;;11.10;;
16837;SDS011;19510;54.486;9.046;2022-10-26T06:48:19;22.98;;;10.23;;
16837;SDS011;19510;54.486;9.046;2022-10-26T06:50:49;21.13;;;9.80;;
16837;SDS011;19510;54.486;9.046;2022-10-26T06:53:28;18.33;;;9.98;;
16837;SDS011;19510;54.486;9.046;2022-10-26T06:55:59;23.80;;;9.90;;
16837;SDS011;19510;54.486;9.046;2022-10-26T06:58:29;19.90;;;9.93;;
16837;SDS011;19510;54.486;9.046;2022-10-26T07:00:58;19.48;;;10.23;;
16837;SDS011;19510;54.486;9.046;2022-10-26T07:03:27;22.17;;;9.77;;
16837;SDS011;19510;54.486;9.046;2022-10-26T07:05:55;22.00;;;12.60;;
16837;SDS011;19510;54.486;9.046;2022-10-26T07:08:21;19.63;;;11.43;;
16837;SDS011;19510;54.486;9.046;2022-10-26T07:10:46;18.60;;;9.68;;
16837;SDS011;19510;54.486;9.046;2022-10-26T07:13:12;20.73;;;11.07;;
16837;SDS011;19510;54.486;9.046;2022-10-26T07:15:38;17.77;;;10.45;;
16837;SDS011;19510;54.486;9.046;2022-10-26T07:18:05;22.98;;;9.90;;
16837;SDS011;19510;54.486;9.046;2022-10-26T07:20:38;22.48;;;10.73;;
16837;SDS011;19510;54.486;9.046;2022-10-26T07:23:07;20.23;;;10.02;;
16837;SDS011;19510;54.486;9.046;2022-10-26T07:25:40;18.55;;;10.15;;
16837;SDS011;19510;54.486;9.046;2022-10-26T07:28:07;19.48;;;10.63;;
16837;SDS011;19510;54.486;9.046;2022-10-26T07:30:34;22.65;;;10.10;;
16837;SDS011;19510;54.486;9.046;2022-10-26T07:33:01;19.95;;;10.48;;
16837;SDS011;19510;54.486;9.046;2022-10-26T07:35:28;17.13;;;10.25;;
16837;SDS011;19510;54.486;9.046;2022-10-26T07:37:57;17.50;;;10.32;;
16837;SDS011;19510;54.486;9.046;2022-10-26T07:40:23;17.20;;;9.73;;
16837;SDS011;19510;54.486;9.046;2022-10-26T07:42:49;15.43;;;9.48;;
16837;SDS011;19510;54.486;9.046;2022-10-26T07:45:15;19.27;;;10.43;;
16837;SDS011;19510;54.486;9.046;2022-10-26T07:47:41;23.00;;;10.23;;
16837;SDS011;19510;54.486;9.046;2022-10-26T07:50:06;21.00;;;9.48;;
16837;SDS011;19510;54.486;9.046;2022-10-26T07:52:32;18.73;;;9.60;;
16837;SDS011;19510;54.486;9.046;2022-10-26T07:55:00;22.58;;;10.07;;
16837;SDS011;19510;54.486;9.046;2022-10-26T07:57:26;20.50;;;9.55;;
16837;SDS011;19510;54.486;9.046;2022-10-26T07:59:52;18.02;;;9.45;;
16837;SDS011;19510;54.486;9.046;2022-10-26T08:02:20;17.45;;;9.70;;
16837;SDS011;19510;54.486;9.046;2022-10-26T08:04:48;18.38;;;9.02;;
16837;SDS011;19510;54.486;9.046;2022-10-26T08:07:14;22.13;;;9.85;;
16837;SDS011;19510;54.486;9.046;2022-10-26T08:09:39;20.77;;;10.60;;
16837;SDS011;19510;54.486;9.046;2022-10-26T08:12:05;20.15;;;10.80;;
16837;SDS011;19510;54.486;9.046;2022-10-26T08:14:31;18.08;;;9.15;;
16837;SDS011;19510;54.486;9.046;2022-10-26T08:16:56;17.60;;;9.38;;
16837;SDS011;19510;54.486;9.046;2022-10-26T08:19:22;18.33;;;9.75;;
16837;SDS011;19510;54.486;9.046;2022-10-26T08:21:48;21.10;;;9.40;;
16837;SDS011;19510;54.486;9.046;2022-10-26T08:24:13;15.98;;;9.00;;
16837;SDS011;19510;54.486;9.046;2022-10-26T08:26:39;19.30;;;9.50;;
16837;SDS011;19510;54.486;9.046;2022-10-26T08:29:06;27.55;;;9.30;;
16837;SDS011;19510;54.486;9.046;2022-10-26T08:31:32;20.98;;;10.35;;
16837;SDS011;19510;54.486;9.046;2022-10-26T08:33:58;18.33;;;10.13;;
16837;SDS011;19510;54.486;9.046;2022-10-26T08:36:24;20.88;;;10.50;;
16837;SDS011;19510;54.486;9.046;2022-10-26T08:38:51;32.70;;;12.32;;
16837;SDS011;19510;54.486;9.046;2022-10-26T08:41:19;20.30;;;9.98;;
16837;SDS011;19510;54.486;9.046;2022-10-26T08:43:53;19.17;;;10.63;;
16837;SDS011;19510;54.486;9.046;2022-10-26T08:46:24;22.27;;;10.25;;
16837;SDS011;19510;54.486;9.046;2022-10-26T08:49:03;21.23;;;10.63;;
16837;SDS011;19510;54.486;9.046;2022-10-26T08:51:42;21.13;;;10.60;;
16837;SDS011;19510;54.486;9.046;2022-10-26T08:54:29;23.63;;;11.18;;
16837;SDS011;19510;54.486;9.046;2022-10-26T08:57:01;20.85;;;10.50;;
16837;SDS011;19510;54.486;9.046;2022-10-26T09:02:16;23.88;;;10.68;;
16837;SDS011;19510;54.486;9.046;2022-10-26T09:04:42;16.75;;;9.48;;
16837;SDS011;19510;54.486;9.046;2022-10-26T09:12:38;22.05;;;10.40;;
16837;SDS011;19510;54.486;9.046;2022-10-26T09:15:30;17.50;;;10.15;;
16837;SDS011;19510;54.486;9.046;2022-10-26T09:18:08;20.35;;;10.32;;
16837;SDS011;19510;54.486;9.046;2022-10-26T09:26:25;17.33;;;9.85;;
16837;SDS011;19510;54.486;9.046;2022-10-26T09:28:57;21.40;;;9.80;;
16837;SDS011;19510;54.486;9.046;2022-10-26T09:31:30;16.85;;;9.80;;
16837;SDS011;19510;54.486;9.046;2022-10-26T09:34:02;19.27;;;9.80;;
16837;SDS011;19510;54.486;9.046;2022-10-26T09:36:32;23.40;;;9.07;;
16837;SDS011;19510;54.486;9.046;2022-10-26T09:39:07;19.48;;;9.43;;
16837;SDS011;19510;54.486;9.046;2022-10-26T09:41:40;22.30;;;9.52;;
16837;SDS011;19510;54.486;9.046;2022-10-26T09:44:33;26.83;;;15.10;;
16837;SDS011;19510;54.486;9.046;2022-10-26T09:47:15;17.98;;;9.48;;
16837;SDS011;19510;54.486;9.046;2022-10-26T09:52:43;16.05;;;8.50;;
16837;SDS011;19510;54.486;9.046;2022-10-26T09:55:11;15.95;;;8.30;;
16837;SDS011;19510;54.486;9.046;2022-10-26T09:57:41;14.27;;;8.65;;
16837;SDS011;19510;54.486;9.046;2022-10-26T10:00:18;17.23;;;8.73;;
16837;SDS011;19510;54.486;9.046;2022-10-26T10:02:46;15.95;;;8.05;;
16837;SDS011;19510;54.486;9.046;2022-10-26T10:05:36;17.77;;;7.47;;
16837;SDS011;19510;54.486;9.046;2022-10-26T10:10:56;14.43;;;7.30;;
16837;SDS011;19510;54.486;9.046;2022-10-26T10:13:23;14.40;;;7.95;;
16837;SDS011;19510;54.486;9.046;2022-10-26T10:16:00;11.82;;;6.97;;
16837;SDS011;19510;54.486;9.046;2022-10-26T10:18:29;15.40;;;7.38;;
16837;SDS011;19510;54.486;9.046;2022-10-26T10:20:58;14.40;;;6.88;;
16837;SDS011;19510;54.486;9.046;2022-10-26T10:23:25;11.93;;;6.72;;
16837;SDS011;19510;54.486;9.046;2022-10-26T10:28:27;13.48;;;8.00;;
16837;SDS011;19510;54.486;9.046;2022-10-26T10:30:54;15.80;;;7.38;;
16837;SDS011;19510;54.486;9.046;2022-10-26T10:33:30;14.02;;;7.25;;
16837;SDS011;19510;54.486;9.046;2022-10-26T10:36:01;14.93;;;6.65;;
16837;SDS011;19510;54.486;9.046;2022-10-26T10:38:35;15.25;;;7.50;;
16837;SDS011;19510;54.486;9.046;2022-10-26T10:41:02;15.55;;;6.40;;
16837;SDS011;19510;54.486;9.046;2022-10-26T10:43:29;13.13;;;6.38;;
16837;SDS011;19510;54.486;9.046;2022-10-26T10:45:55;13.18;;;5.88;;
16837;SDS011;19510;54.486;9.046;2022-10-26T10:48:31;9.13;;;5.40;;
16837;SDS011;19510;54.486;9.046;2022-10-26T10:51:06;9.82;;;5.72;;
16837;SDS011;19510;54.486;9.046;2022-10-26T10:53:42;9.38;;;4.90;;
16837;SDS011;19510;54.486;9.046;2022-10-26T11:07:03;8.18;;;4.18;;
16837;SDS011;19510;54.486;9.046;2022-10-26T11:09:32;8.80;;;3.50;;
16837;SDS011;19510;54.486;9.046;2022-10-26T11:12:02;8.30;;;4.18;;
16837;SDS011;19510;54.486;9.046;2022-10-26T11:17:18;8.75;;;3.13;;
16837;SDS011;19510;54.486;9.046;2022-10-26T11:20:02;6.35;;;2.90;;
16837;SDS011;19510;54.486;9.046;2022-10-26T11:25:26;5.47;;;2.95;;
16837;SDS011;19510;54.486;9.046;2022-10-26T11:27:55;9.15;;;2.88;;
16837;SDS011;19510;54.486;9.046;2022-10-26T11:30:25;5.88;;;2.40;;
16837;SDS011;19510;54.486;9.046;2022-10-26T11:32:59;6.00;;;2.80;;
16837;SDS011;19510;54.486;9.046;2022-10-26T11:35:42;5.13;;;2.95;;
16837;SDS011;19510;54.486;9.046;2022-10-26T11:41:16;5.38;;;1.90;;
16837;SDS011;19510;54.486;9.046;2022-10-26T11:52:04;2.95;;;1.70;;
16837;SDS011;19510;54.486;9.046;2022-10-26T11:54:57;2.45;;;1.80;;
16837;SDS011;19510;54.486;9.046;2022-10-26T11:57:28;2.55;;;1.50;;
16837;SDS011;19510;54.486;9.046;2022-10-26T12:00:07;4.50;;;1.80;;
16837;SDS011;19510;54.486;9.046;2022-10-26T12:02:41;5.50;;;1.90;;
16837;SDS011;19510;54.486;9.046;2022-10-26T12:05:55;4.95;;;1.52;;
16837;SDS011;19510;54.486;9.046;2022-10-26T12:07:56;4.38;;;1.48;;
16837;SDS011;19510;54.486;9.046;2022-10-26T12:10:28;2.50;;;1.75;;
16837;SDS011;19510;54.486;9.046;2022-10-26T12:13:03;7.55;;;1.52;;
16837;SDS011;19510;54.486;9.046;2022-10-26T12:15:41;4.10;;;1.65;;
16837;SDS011;19510;54.486;9.046;2022-10-26T12:20:53;3.92;;;1.90;;
16837;SDS011;19510;54.486;9.046;2022-10-26T12:37:21;4.28;;;1.83;;
16837;SDS011;19510;54.486;9.046;2022-10-26T12:39:54;4.25;;;1.48;;
16837;SDS011;19510;54.486;9.046;2022-10-26T12:42:40;6.05;;;1.85;;
16837;SDS011;19510;54.486;9.046;2022-10-26T12:45:18;4.28;;;1.80;;
16837;SDS011;19510;54.486;9.046;2022-10-26T13:00:35;2.55;;;1.60;;
16837;SDS011;19510;54.486;9.046;2022-10-26T13:09:29;7.63;;;2.60;;
16837;SDS011;19510;54.486;9.046;2022-10-26T13:11:59;4.95;;;1.60;;
16837;SDS011;19510;54.486;9.046;2022-10-26T13:16:59;1.58;;;1.42;;
16837;SDS011;19510;54.486;9.046;2022-10-26T13:22:11;2.42;;;1.50;;
16837;SDS011;19510;54.486;9.046;2022-10-26T13:24:42;2.42;;;1.58;;
16837;SDS011;19510;54.486;9.046;2022-10-26T13:32:29;6.40;;;1.58;;
16837;SDS011;19510;54.486;9.046;2022-10-26T13:35:04;6.05;;;2.00;;
16837;SDS011;19510;54.486;9.046;2022-10-26T13:37:35;7.07;;;1.80;;
16837;SDS011;19510;54.486;9.046;2022-10-26T13:40:05;6.75;;;2.00;;
16837;SDS011;19510;54.486;9.046;2022-10-26T13:42:43;4.43;;;1.90;;
16837;SDS011;19510;54.486;9.046;2022-10-26T13:48:19;2.78;;;1.65;;
16837;SDS011;19510;54.486;9.046;2022-10-26T13:50:59;2.35;;;1.50;;
16837;SDS011;19510;54.486;9.046;2022-10-26T13:53:40;3.20;;;1.58;;
16837;SDS011;19510;54.486;9.046;2022-10-26T13:58:47;3.47;;;1.60;;
16837;SDS011;19510;54.486;9.046;2022-10-26T14:01:19;5.28;;;2.08;;
16837;SDS011;19510;54.486;9.046;2022-10-26T14:03:49;4.78;;;1.98;;
16837;SDS011;19510;54.486;9.046;2022-10-26T14:06:31;2.88;;;1.67;;
16837;SDS011;19510;54.486;9.046;2022-10-26T14:09:01;4.15;;;1.98;;
16837;SDS011;19510;54.486;9.046;2022-10-26T14:11:57;5.25;;;2.33;;
16837;SDS011;19510;54.486;9.046;2022-10-26T14:14:27;3.55;;;2.38;;
16837;SDS011;19510;54.486;9.046;2022-10-26T14:16:56;4.95;;;1.80;;
16837;SDS011;19510;54.486;9.046;2022-10-26T14:21:52;3.00;;;2.13;;
16837;SDS011;19510;54.486;9.046;2022-10-26T14:24:23;4.80;;;2.00;;
16837;SDS011;19510;54.486;9.046;2022-10-26T14:26:52;5.65;;;2.60;;
16837;SDS011;19510;54.486;9.046;2022-10-26T14:29:19;6.07;;;2.15;;
16837;SDS011;19510;54.486;9.046;2022-10-26T14:31:49;4.20;;;2.45;;
16837;SDS011;19510;54.486;9.046;2022-10-26T14:34:18;4.28;;;2.42;;
16837;SDS011;19510;54.486;9.046;2022-10-26T14:42:30;4.78;;;2.58;;
16837;SDS011;19510;54.486;9.046;2022-10-26T14:45:03;3.60;;;2.10;;
16837;SDS011;19510;54.486;9.046;2022-10-26T14:47:30;3.72;;;2.47;;
16837;SDS011;19510;54.486;9.046;2022-10-26T14:49:59;5.00;;;2.50;;
16837;SDS011;19510;54.486;9.046;2022-10-26T14:52:29;7.05;;;2.45;;
16837;SDS011;19510;54.486;9.046;2022-10-26T14:55:01;8.07;;;2.28;;
16837;SDS011;19510;54.486;9.046;2022-10-26T14:57:36;3.13;;;2.00;;
16837;SDS011;19510;54.486;9.046;2022-10-26T15:00:11;5.22;;;2.40;;
16837;SDS011;19510;54.486;9.046;2022-10-26T15:02:50;4.75;;;2.50;;
16837;SDS011;19510;54.486;9.046;2022-10-26T15:05:27;4.57;;;2.35;;
16837;SDS011;19510;54.486;9.046;2022-10-26T15:07:58;4.65;;;2.20;;
16837;SDS011;19510;54.486;9.046;2022-10-26T15:15:53;6.10;;;2.50;;
16837;SDS011;19510;54.486;9.046;2022-10-26T15:18:28;6.13;;;2.58;;
16837;SDS011;19510;54.486;9.046;2022-10-26T15:20:57;4.65;;;2.80;;
16837;SDS011;19510;54.486;9.046;2022-10-26T15:23:26;8.73;;;2.95;;
16837;SDS011;19510;54.486;9.046;2022-10-26T15:25:57;5.53;;;3.00;;
16837;SDS011;19510;54.486;9.046;2022-10-26T15:28:29;4.60;;;2.40;;
16837;SDS011;19510;54.486;9.046;2022-10-26T15:31:03;7.38;;;2.80;;
16837;SDS011;19510;54.486;9.046;2022-10-26T15:33:30;5.30;;;2.63;;
16837;SDS011;19510;54.486;9.046;2022-10-26T15:38:48;7.88;;;2.42;;
16837;SDS011;19510;54.486;9.046;2022-10-26T15:41:26;11.45;;;2.65;;
16837;SDS011;19510;54.486;9.046;2022-10-26T15:43:55;7.85;;;2.80;;
16837;SDS011;19510;54.486;9.046;2022-10-26T15:46:23;5.53;;;2.80;;
16837;SDS011;19510;54.486;9.046;2022-10-26T15:48:56;7.22;;;2.65;;
16837;SDS011;19510;54.486;9.046;2022-10-26T15:54:46;8.23;;;2.55;;
16837;SDS011;19510;54.486;9.046;2022-10-26T15:57:12;5.88;;;2.83;;
16837;SDS011;19510;54.486;9.046;2022-10-26T15:59:40;6.25;;;3.13;;
16837;SDS011;19510;54.486;9.046;2022-10-26T16:02:13;7.03;;;3.22;;
16837;SDS011;19510;54.486;9.046;2022-10-26T16:04:41;9.30;;;3.05;;
16837;SDS011;19510;54.486;9.046;2022-10-26T16:07:13;9.00;;;3.25;;
16837;SDS011;19510;54.486;9.046;2022-10-26T16:09:40;8.68;;;3.08;;
16837;SDS011;19510;54.486;9.046;2022-10-26T16:12:09;10.27;;;5.63;;
16837;SDS011;19510;54.486;9.046;2022-10-26T16:14:36;5.50;;;3.30;;
16837;SDS011;19510;54.486;9.046;2022-10-26T16:17:04;5.57;;;2.90;;
16837;SDS011;19510;54.486;9.046;2022-10-26T16:19:31;6.10;;;3.63;;
16837;SDS011;19510;54.486;9.046;2022-10-26T16:21:57;7.15;;;3.85;;
16837;SDS011;19510;54.486;9.046;2022-10-26T16:24:23;11.82;;;3.55;;
16837;SDS011;19510;54.486;9.046;2022-10-26T16:26:49;5.97;;;3.20;;
16837;SDS011;19510;54.486;9.046;2022-10-26T16:29:19;6.07;;;3.17;;
16837;SDS011;19510;54.486;9.046;2022-10-26T16:31:45;4.45;;;2.80;;
16837;SDS011;19510;54.486;9.046;2022-10-26T16:34:11;7.90;;;3.15;;
16837;SDS011;19510;54.486;9.046;2022-10-26T16:36:39;5.32;;;2.92;;
16837;SDS011;19510;54.486;9.046;2022-10-26T16:39:05;6.15;;;3.47;;
16837;SDS011;19510;54.486;9.046;2022-10-26T16:41:31;5.18;;;3.10;;
16837;SDS011;19510;54.486;9.046;2022-10-26T16:43:58;6.30;;;3.42;;
16837;SDS011;19510;54.486;9.046;2022-10-26T16:46:23;5.45;;;3.72;;
16837;SDS011;19510;54.486;9.046;2022-10-26T16:48:55;9.10;;;3.17;;
16837;SDS011;19510;54.486;9.046;2022-10-26T16:51:22;7.20;;;3.53;;
16837;SDS011;19510;54.486;9.046;2022-10-26T16:53:50;9.57;;;3.92;;
16837;SDS011;19510;54.486;9.046;2022-10-26T16:56:18;5.55;;;3.60;;
16837;SDS011;19510;54.486;9.046;2022-10-26T16:58:45;6.97;;;4.72;;
16837;SDS011;19510;54.486;9.046;2022-10-26T17:01:12;6.55;;;3.42;;
16837;SDS011;19510;54.486;9.046;2022-10-26T17:03:42;7.28;;;3.83;;
16837;SDS011;19510;54.486;9.046;2022-10-26T17:06:10;8.07;;;3.60;;
16837;SDS011;19510;54.486;9.046;2022-10-26T17:08:37;6.88;;;4.00;;
16837;SDS011;19510;54.486;9.046;2022-10-26T17:11:06;9.23;;;4.35;;
16837;SDS011;19510;54.486;9.046;2022-10-26T17:13:34;8.73;;;4.70;;
16837;SDS011;19510;54.486;9.046;2022-10-26T17:16:04;7.53;;;4.10;;
16837;SDS011;19510;54.486;9.046;2022-10-26T17:18:32;5.43;;;3.70;;
16837;SDS011;19510;54.486;9.046;2022-10-26T17:20:58;16.42;;;4.72;;
16837;SDS011;19510;54.486;9.046;2022-10-26T17:23:24;6.60;;;3.88;;
16837;SDS011;19510;54.486;9.046;2022-10-26T17:25:52;7.43;;;3.90;;
16837;SDS011;19510;54.486;9.046;2022-10-26T17:28:18;7.80;;;4.35;;
16837;SDS011;19510;54.486;9.046;2022-10-26T17:30:46;8.65;;;3.75;;
16837;SDS011;19510;54.486;9.046;2022-10-26T17:33:11;7.82;;;4.63;;
16837;SDS011;19510;54.486;9.046;2022-10-26T17:35:37;7.72;;;4.28;;
16837;SDS011;19510;54.486;9.046;2022-10-26T17:38:03;8.52;;;4.47;;
16837;SDS011;19510;54.486;9.046;2022-10-26T17:40:29;5.72;;;3.97;;
16837;SDS011;19510;54.486;9.046;2022-10-26T17:42:58;8.27;;;4.40;;
16837;SDS011;19510;54.486;9.046;2022-10-26T17:45:24;11.13;;;4.20;;